sensor_id;sensor_type;location;lat;lon;timestamp;P1;durP1;ratioP1;P2;durP2;ratioP2
7340;SDS011;6870;50.944;6.932;2024-01-10T00:01:28;10.57;;;4.30;;
7340;SDS011;6870;50.944;6.932;2024-01-10T00:03:56;4.63;;;4.00;;
7340;SDS011;6870;50.944;6.932;2024-01-10T00:06:24;5.20;;;3.80;;
7340;SDS011;6870;50.944;6.932;2024-01-10T00:08:52;5.47;;;3.60;;
7340;SDS011;6870;50.944;6.932;2024-01-10T00:11:20;6.20;;;3.63;;
7340;SDS011;6870;50.944;6.932;2024-01-10T00:13:50;10.00;;;4.47;;
7340;SDS011;6870;50.944;6.932;2024-01-10T00:16:18;5.83;;;5.20;;
7340;SDS011;6870;50.944;6.932;2024-01-10T00:18:46;5.87;;;4.57;;
7340;SDS011;6870;50.944;6.932;2024-01-10T00:21:14;6.07;;;4.50;;
7340;SDS011;6870;50.944;6.932;2024-01-10T00:23:43;5.00;;;4.43;;
7340;SDS011;6870;50.944;6.932;2024-01-10T00:26:11;5.87;;;3.67;;
7340;SDS011;6870;50.944;6.932;2024-01-10T00:28:39;5.80;;;4.10;;
7340;SDS011;6870;50.944;6.932;2024-01-10T00:31:08;5.43;;;4.00;;
7340;SDS011;6870;50.944;6.932;2024-01-10T00:33:36;4.83;;;3.83;;
7340;SDS011;6870;50.944;6.932;2024-01-10T00:36:05;6.90;;;5.07;;
7340;SDS011;6870;50.944;6.932;2024-01-10T00:38:33;5.27;;;4.63;;
7340;SDS011;6870;50.944;6.932;2024-01-10T00:41:01;5.30;;;3.87;;
7340;SDS011;6870;50.944;6.932;2024-01-10T00:43:29;4.27;;;3.70;;
7340;SDS011;6870;50.944;6.932;2024-01-10T00:45:58;6.60;;;3.70;;
7340;SDS011;6870;50.944;6.932;2024-01-10T00:48:27;5.17;;;3.63;;
7340;SDS011;6870;50.944;6.932;2024-01-10T00:50:55;6.20;;;3.97;;
7340;SDS011;6870;50.944;6.932;2024-01-10T00:53:23;4.83;;;3.37;;
7340;SDS011;6870;50.944;6.932;2024-01-10T00:55:51;4.80;;;3.50;;
7340;SDS011;6870;50.944;6.932;2024-01-10T00:58:19;6.50;;;4.80;;
7340;SDS011;6870;50.944;6.932;2024-01-10T01:00:47;6.10;;;4.30;;
7340;SDS011;6870;50.944;6.932;2024-01-10T01:03:15;5.10;;;3.50;;
7340;SDS011;6870;50.944;6.932;2024-01-10T01:05:45;5.60;;;3.47;;
7340;SDS011;6870;50.944;6.932;2024-01-10T01:08:13;7.63;;;4.40;;
7340;SDS011;6870;50.944;6.932;2024-01-10T01:10:41;5.23;;;3.97;;
7340;SDS011;6870;50.944;6.932;2024-01-10T01:13:09;4.97;;;3.73;;
7340;SDS011;6870;50.944;6.932;2024-01-10T01:15:37;4.93;;;4.00;;
7340;SDS011;6870;50.944;6.932;2024-01-10T01:18:05;6.70;;;4.23;;
7340;SDS011;6870;50.944;6.932;2024-01-10T01:20:36;6.27;;;4.40;;
7340;SDS011;6870;50.944;6.932;2024-01-10T01:23:05;5.77;;;4.10;;
7340;SDS011;6870;50.944;6.932;2024-01-10T01:25:33;5.03;;;3.73;;
7340;SDS011;6870;50.944;6.932;2024-01-10T01:28:01;6.90;;;3.53;;
7340;SDS011;6870;50.944;6.932;2024-01-10T01:30:30;6.20;;;4.10;;
7340;SDS011;6870;50.944;6.932;2024-01-10T01:32:58;5.03;;;3.60;;
7340;SDS011;6870;50.944;6.932;2024-01-10T01:35:26;6.50;;;4.20;;
7340;SDS011;6870;50.944;6.932;2024-01-10T01:37:54;5.80;;;3.63;;
7340;SDS011;6870;50.944;6.932;2024-01-10T01:40:23;4.10;;;3.00;;
7340;SDS011;6870;50.944;6.932;2024-01-10T01:42:51;8.40;;;4.00;;
7340;SDS011;6870;50.944;6.932;2024-01-10T01:45:20;4.73;;;3.40;;
7340;SDS011;6870;50.944;6.932;2024-01-10T01:47:48;6.43;;;3.03;;
7340;SDS011;6870;50.944;6.932;2024-01-10T01:50:17;4.40;;;3.27;;
7340;SDS011;6870;50.944;6.932;2024-01-10T01:52:45;7.90;;;4.20;;
7340;SDS011;6870;50.944;6.932;2024-01-10T01:55:13;4.43;;;3.53;;
7340;SDS011;6870;50.944;6.932;2024-01-10T01:57:43;3.77;;;3.10;;
7340;SDS011;6870;50.944;6.932;2024-01-10T02:00:11;4.60;;;3.47;;
7340;SDS011;6870;50.944;6.932;2024-01-10T02:02:40;4.37;;;3.37;;
7340;SDS011;6870;50.944;6.932;2024-01-10T02:05:10;3.77;;;3.40;;
7340;SDS011;6870;50.944;6.932;2024-01-10T02:07:40;3.77;;;3.40;;
7340;SDS011;6870;50.944;6.932;2024-01-10T02:10:09;4.97;;;3.47;;
7340;SDS011;6870;50.944;6.932;2024-01-10T02:12:37;5.60;;;4.30;;
7340;SDS011;6870;50.944;6.932;2024-01-10T02:15:06;4.70;;;3.30;;
7340;SDS011;6870;50.944;6.932;2024-01-10T02:17:35;4.83;;;3.50;;
7340;SDS011;6870;50.944;6.932;2024-01-10T02:20:09;4.40;;;2.80;;
7340;SDS011;6870;50.944;6.932;2024-01-10T02:22:38;3.50;;;3.20;;
7340;SDS011;6870;50.944;6.932;2024-01-10T02:25:08;5.30;;;4.13;;
7340;SDS011;6870;50.944;6.932;2024-01-10T02:27:37;4.87;;;3.70;;
7340;SDS011;6870;50.944;6.932;2024-01-10T02:30:06;4.33;;;3.87;;
7340;SDS011;6870;50.944;6.932;2024-01-10T02:32:37;5.90;;;3.40;;
7340;SDS011;6870;50.944;6.932;2024-01-10T02:35:05;4.20;;;3.80;;
7340;SDS011;6870;50.944;6.932;2024-01-10T02:37:35;4.60;;;2.87;;
7340;SDS011;6870;50.944;6.932;2024-01-10T02:40:03;3.37;;;3.03;;
7340;SDS011;6870;50.944;6.932;2024-01-10T02:42:34;5.00;;;3.40;;
7340;SDS011;6870;50.944;6.932;2024-01-10T02:45:03;4.70;;;3.53;;
7340;SDS011;6870;50.944;6.932;2024-01-10T02:47:31;4.80;;;3.30;;
7340;SDS011;6870;50.944;6.932;2024-01-10T02:50:00;4.37;;;3.17;;
7340;SDS011;6870;50.944;6.932;2024-01-10T02:52:28;4.53;;;3.17;;
7340;SDS011;6870;50.944;6.932;2024-01-10T02:54:56;4.47;;;3.40;;
7340;SDS011;6870;50.944;6.932;2024-01-10T02:57:24;4.37;;;3.13;;
7340;SDS011;6870;50.944;6.932;2024-01-10T02:59:54;3.90;;;3.23;;
7340;SDS011;6870;50.944;6.932;2024-01-10T03:02:22;3.53;;;2.70;;
7340;SDS011;6870;50.944;6.932;2024-01-10T03:04:51;4.30;;;2.60;;
7340;SDS011;6870;50.944;6.932;2024-01-10T03:07:19;4.50;;;2.97;;
7340;SDS011;6870;50.944;6.932;2024-01-10T03:09:47;3.40;;;2.90;;
7340;SDS011;6870;50.944;6.932;2024-01-10T03:12:15;4.27;;;3.20;;
7340;SDS011;6870;50.944;6.932;2024-01-10T03:14:43;7.67;;;4.90;;
7340;SDS011;6870;50.944;6.932;2024-01-10T03:17:13;4.23;;;3.23;;
7340;SDS011;6870;50.944;6.932;2024-01-10T03:19:41;4.00;;;3.20;;
7340;SDS011;6870;50.944;6.932;2024-01-10T03:22:10;4.90;;;3.20;;
7340;SDS011;6870;50.944;6.932;2024-01-10T03:24:39;4.40;;;3.13;;
7340;SDS011;6870;50.944;6.932;2024-01-10T03:27:07;3.47;;;3.03;;
7340;SDS011;6870;50.944;6.932;2024-01-10T03:29:35;4.30;;;3.50;;
7340;SDS011;6870;50.944;6.932;2024-01-10T03:32:03;5.17;;;3.50;;
7340;SDS011;6870;50.944;6.932;2024-01-10T03:34:34;3.50;;;2.70;;
7340;SDS011;6870;50.944;6.932;2024-01-10T03:37:02;4.50;;;3.30;;
7340;SDS011;6870;50.944;6.932;2024-01-10T03:39:31;4.10;;;3.33;;
7340;SDS011;6870;50.944;6.932;2024-01-10T03:42:00;3.37;;;3.10;;
7340;SDS011;6870;50.944;6.932;2024-01-10T03:44:28;4.47;;;3.43;;
7340;SDS011;6870;50.944;6.932;2024-01-10T03:46:56;3.70;;;3.27;;
7340;SDS011;6870;50.944;6.932;2024-01-10T03:49:24;4.50;;;3.80;;
7340;SDS011;6870;50.944;6.932;2024-01-10T03:51:53;4.40;;;3.33;;
7340;SDS011;6870;50.944;6.932;2024-01-10T03:54:21;3.83;;;3.03;;
7340;SDS011;6870;50.944;6.932;2024-01-10T03:56:49;3.20;;;2.83;;
7340;SDS011;6870;50.944;6.932;2024-01-10T03:59:17;6.30;;;3.20;;
7340;SDS011;6870;50.944;6.932;2024-01-10T04:01:45;5.03;;;3.27;;
7340;SDS011;6870;50.944;6.932;2024-01-10T04:04:13;4.10;;;3.13;;
7340;SDS011;6870;50.944;6.932;2024-01-10T04:06:41;6.33;;;3.27;;
7340;SDS011;6870;50.944;6.932;2024-01-10T04:09:11;4.13;;;3.57;;
7340;SDS011;6870;50.944;6.932;2024-01-10T04:11:39;3.73;;;2.90;;
7340;SDS011;6870;50.944;6.932;2024-01-10T04:14:07;4.53;;;3.20;;
7340;SDS011;6870;50.944;6.932;2024-01-10T04:16:35;3.97;;;3.30;;
7340;SDS011;6870;50.944;6.932;2024-01-10T04:19:03;4.40;;;2.80;;
7340;SDS011;6870;50.944;6.932;2024-01-10T04:21:31;3.57;;;3.03;;
7340;SDS011;6870;50.944;6.932;2024-01-10T04:23:59;4.53;;;3.03;;
7340;SDS011;6870;50.944;6.932;2024-01-10T04:26:29;3.23;;;2.93;;
7340;SDS011;6870;50.944;6.932;2024-01-10T04:28:58;3.30;;;3.00;;
7340;SDS011;6870;50.944;6.932;2024-01-10T04:31:26;3.17;;;2.43;;
7340;SDS011;6870;50.944;6.932;2024-01-10T04:33:54;6.80;;;3.30;;
7340;SDS011;6870;50.944;6.932;2024-01-10T04:36:22;4.03;;;2.70;;
7340;SDS011;6870;50.944;6.932;2024-01-10T04:38:50;3.40;;;2.37;;
7340;SDS011;6870;50.944;6.932;2024-01-10T04:41:18;4.00;;;3.20;;
7340;SDS011;6870;50.944;6.932;2024-01-10T04:43:48;4.27;;;2.83;;
7340;SDS011;6870;50.944;6.932;2024-01-10T04:46:16;3.00;;;2.67;;
7340;SDS011;6870;50.944;6.932;2024-01-10T04:48:45;4.10;;;3.03;;
7340;SDS011;6870;50.944;6.932;2024-01-10T04:51:13;4.00;;;2.97;;
7340;SDS011;6870;50.944;6.932;2024-01-10T04:53:41;4.40;;;2.93;;
7340;SDS011;6870;50.944;6.932;2024-01-10T04:56:09;5.80;;;2.93;;
7340;SDS011;6870;50.944;6.932;2024-01-10T04:58:37;3.90;;;2.70;;
7340;SDS011;6870;50.944;6.932;2024-01-10T05:01:07;3.50;;;2.43;;
7340;SDS011;6870;50.944;6.932;2024-01-10T05:03:35;3.30;;;3.00;;
7340;SDS011;6870;50.944;6.932;2024-01-10T05:06:03;4.07;;;3.00;;
7340;SDS011;6870;50.944;6.932;2024-01-10T05:08:33;3.00;;;2.60;;
7340;SDS011;6870;50.944;6.932;2024-01-10T05:11:01;4.13;;;2.70;;
7340;SDS011;6870;50.944;6.932;2024-01-10T05:13:30;3.57;;;2.40;;
7340;SDS011;6870;50.944;6.932;2024-01-10T05:15:58;4.17;;;2.67;;
7340;SDS011;6870;50.944;6.932;2024-01-10T05:18:27;3.70;;;2.90;;
7340;SDS011;6870;50.944;6.932;2024-01-10T05:20:55;3.67;;;2.57;;
7340;SDS011;6870;50.944;6.932;2024-01-10T05:23:23;3.83;;;3.30;;
7340;SDS011;6870;50.944;6.932;2024-01-10T05:25:53;3.60;;;2.60;;
7340;SDS011;6870;50.944;6.932;2024-01-10T05:28:21;6.40;;;5.80;;
7340;SDS011;6870;50.944;6.932;2024-01-10T05:30:49;7.73;;;6.33;;
7340;SDS011;6870;50.944;6.932;2024-01-10T05:33:17;7.90;;;6.93;;
7340;SDS011;6870;50.944;6.932;2024-01-10T05:35:47;8.60;;;6.87;;
7340;SDS011;6870;50.944;6.932;2024-01-10T05:38:15;10.50;;;7.00;;
7340;SDS011;6870;50.944;6.932;2024-01-10T05:40:44;4.80;;;4.30;;
7340;SDS011;6870;50.944;6.932;2024-01-10T05:43:12;6.60;;;5.00;;
7340;SDS011;6870;50.944;6.932;2024-01-10T05:45:41;10.23;;;4.50;;
7340;SDS011;6870;50.944;6.932;2024-01-10T05:48:09;14.03;;;5.30;;
7340;SDS011;6870;50.944;6.932;2024-01-10T05:50:38;9.83;;;5.43;;
7340;SDS011;6870;50.944;6.932;2024-01-10T05:53:08;12.40;;;5.33;;
7340;SDS011;6870;50.944;6.932;2024-01-10T05:55:36;6.30;;;4.30;;
7340;SDS011;6870;50.944;6.932;2024-01-10T05:58:04;7.13;;;4.30;;
7340;SDS011;6870;50.944;6.932;2024-01-10T06:00:32;5.00;;;3.73;;
7340;SDS011;6870;50.944;6.932;2024-01-10T06:03:00;5.60;;;4.07;;
7340;SDS011;6870;50.944;6.932;2024-01-10T06:05:28;7.00;;;4.97;;
7340;SDS011;6870;50.944;6.932;2024-01-10T06:07:57;5.37;;;4.30;;
7340;SDS011;6870;50.944;6.932;2024-01-10T06:10:27;5.20;;;4.30;;
7340;SDS011;6870;50.944;6.932;2024-01-10T06:12:55;9.83;;;4.80;;
7340;SDS011;6870;50.944;6.932;2024-01-10T06:15:23;8.50;;;4.70;;
7340;SDS011;6870;50.944;6.932;2024-01-10T06:17:51;5.90;;;4.20;;
7340;SDS011;6870;50.944;6.932;2024-01-10T06:20:19;6.20;;;4.07;;
7340;SDS011;6870;50.944;6.932;2024-01-10T06:22:47;6.60;;;3.60;;
7340;SDS011;6870;50.944;6.932;2024-01-10T06:25:16;7.37;;;3.87;;
7340;SDS011;6870;50.944;6.932;2024-01-10T06:27:45;5.40;;;3.43;;
7340;SDS011;6870;50.944;6.932;2024-01-10T06:30:13;3.97;;;3.53;;
7340;SDS011;6870;50.944;6.932;2024-01-10T06:32:42;5.93;;;3.70;;
7340;SDS011;6870;50.944;6.932;2024-01-10T06:35:10;5.00;;;3.77;;
7340;SDS011;6870;50.944;6.932;2024-01-10T06:37:38;4.60;;;4.07;;
7340;SDS011;6870;50.944;6.932;2024-01-10T06:40:07;6.63;;;4.77;;
7340;SDS011;6870;50.944;6.932;2024-01-10T06:42:37;5.20;;;3.83;;
7340;SDS011;6870;50.944;6.932;2024-01-10T06:45:07;5.63;;;3.63;;
7340;SDS011;6870;50.944;6.932;2024-01-10T06:47:38;4.70;;;3.57;;
7340;SDS011;6870;50.944;6.932;2024-01-10T06:50:08;7.03;;;3.87;;
7340;SDS011;6870;50.944;6.932;2024-01-10T06:52:37;5.20;;;3.27;;
7340;SDS011;6870;50.944;6.932;2024-01-10T06:55:06;5.00;;;4.33;;
7340;SDS011;6870;50.944;6.932;2024-01-10T06:57:35;7.03;;;3.80;;
7340;SDS011;6870;50.944;6.932;2024-01-10T07:00:04;5.80;;;4.37;;
7340;SDS011;6870;50.944;6.932;2024-01-10T07:02:37;4.80;;;3.60;;
7340;SDS011;6870;50.944;6.932;2024-01-10T07:05:07;6.20;;;3.77;;
7340;SDS011;6870;50.944;6.932;2024-01-10T07:07:35;5.60;;;3.60;;
7340;SDS011;6870;50.944;6.932;2024-01-10T07:10:04;5.03;;;3.90;;
7340;SDS011;6870;50.944;6.932;2024-01-10T07:12:33;4.10;;;3.00;;
7340;SDS011;6870;50.944;6.932;2024-01-10T07:15:01;4.43;;;3.80;;
7340;SDS011;6870;50.944;6.932;2024-01-10T07:17:31;9.97;;;4.00;;
7340;SDS011;6870;50.944;6.932;2024-01-10T07:20:00;4.43;;;3.13;;
7340;SDS011;6870;50.944;6.932;2024-01-10T07:22:29;6.47;;;4.10;;
7340;SDS011;6870;50.944;6.932;2024-01-10T07:24:58;3.30;;;3.00;;
7340;SDS011;6870;50.944;6.932;2024-01-10T07:27:26;7.30;;;3.63;;
7340;SDS011;6870;50.944;6.932;2024-01-10T07:29:56;8.27;;;4.73;;
7340;SDS011;6870;50.944;6.932;2024-01-10T07:33:09;4.13;;;3.33;;
7340;SDS011;6870;50.944;6.932;2024-01-10T07:35:38;6.37;;;3.77;;
7340;SDS011;6870;50.944;6.932;2024-01-10T07:38:07;6.67;;;3.07;;
7340;SDS011;6870;50.944;6.932;2024-01-10T07:40:35;4.93;;;2.87;;
7340;SDS011;6870;50.944;6.932;2024-01-10T07:43:03;5.37;;;3.60;;
7340;SDS011;6870;50.944;6.932;2024-01-10T07:45:52;3.87;;;3.13;;
7340;SDS011;6870;50.944;6.932;2024-01-10T07:48:40;4.57;;;3.70;;
7340;SDS011;6870;50.944;6.932;2024-01-10T07:51:08;4.73;;;3.80;;
7340;SDS011;6870;50.944;6.932;2024-01-10T07:53:36;8.03;;;3.10;;
7340;SDS011;6870;50.944;6.932;2024-01-10T07:56:05;5.80;;;3.60;;
7340;SDS011;6870;50.944;6.932;2024-01-10T07:58:33;7.67;;;3.63;;
7340;SDS011;6870;50.944;6.932;2024-01-10T08:01:01;4.50;;;3.40;;
7340;SDS011;6870;50.944;6.932;2024-01-10T08:03:30;5.70;;;3.50;;
7340;SDS011;6870;50.944;6.932;2024-01-10T08:06:01;3.93;;;3.47;;
7340;SDS011;6870;50.944;6.932;2024-01-10T08:08:33;4.90;;;3.80;;
7340;SDS011;6870;50.944;6.932;2024-01-10T08:11:01;6.33;;;3.80;;
7340;SDS011;6870;50.944;6.932;2024-01-10T08:13:30;6.33;;;3.67;;
7340;SDS011;6870;50.944;6.932;2024-01-10T08:15:58;4.20;;;3.03;;
7340;SDS011;6870;50.944;6.932;2024-01-10T08:18:26;4.33;;;3.93;;
7340;SDS011;6870;50.944;6.932;2024-01-10T08:20:54;6.33;;;3.63;;
7340;SDS011;6870;50.944;6.932;2024-01-10T08:23:23;4.40;;;3.83;;
7340;SDS011;6870;50.944;6.932;2024-01-10T08:25:52;4.83;;;3.60;;
7340;SDS011;6870;50.944;6.932;2024-01-10T08:28:21;4.67;;;3.63;;
7340;SDS011;6870;50.944;6.932;2024-01-10T08:30:49;4.37;;;3.50;;
7340;SDS011;6870;50.944;6.932;2024-01-10T08:33:16;8.10;;;3.50;;
7340;SDS011;6870;50.944;6.932;2024-01-10T08:35:45;6.27;;;3.63;;
7340;SDS011;6870;50.944;6.932;2024-01-10T08:38:13;7.07;;;3.77;;
7340;SDS011;6870;50.944;6.932;2024-01-10T08:40:42;5.07;;;3.23;;
7340;SDS011;6870;50.944;6.932;2024-01-10T08:43:11;9.00;;;3.97;;
7340;SDS011;6870;50.944;6.932;2024-01-10T08:45:38;6.07;;;3.53;;
7340;SDS011;6870;50.944;6.932;2024-01-10T08:48:07;9.17;;;3.20;;
7340;SDS011;6870;50.944;6.932;2024-01-10T08:50:36;4.80;;;3.47;;
7340;SDS011;6870;50.944;6.932;2024-01-10T08:53:05;6.50;;;3.57;;
7340;SDS011;6870;50.944;6.932;2024-01-10T08:55:33;5.33;;;4.20;;
7340;SDS011;6870;50.944;6.932;2024-01-10T08:58:04;7.20;;;4.00;;
7340;SDS011;6870;50.944;6.932;2024-01-10T09:00:33;7.30;;;4.97;;
7340;SDS011;6870;50.944;6.932;2024-01-10T09:03:01;6.73;;;4.40;;
7340;SDS011;6870;50.944;6.932;2024-01-10T09:05:30;8.03;;;4.67;;
7340;SDS011;6870;50.944;6.932;2024-01-10T09:07:59;6.67;;;4.73;;
7340;SDS011;6870;50.944;6.932;2024-01-10T09:10:27;6.43;;;4.53;;
7340;SDS011;6870;50.944;6.932;2024-01-10T09:12:57;5.33;;;3.97;;
7340;SDS011;6870;50.944;6.932;2024-01-10T09:15:27;9.27;;;4.50;;
7340;SDS011;6870;50.944;6.932;2024-01-10T09:17:55;5.27;;;4.13;;
7340;SDS011;6870;50.944;6.932;2024-01-10T09:20:24;6.00;;;3.90;;
7340;SDS011;6870;50.944;6.932;2024-01-10T09:22:52;5.50;;;3.57;;
7340;SDS011;6870;50.944;6.932;2024-01-10T09:25:20;9.10;;;3.63;;
7340;SDS011;6870;50.944;6.932;2024-01-10T09:27:48;5.80;;;4.00;;
7340;SDS011;6870;50.944;6.932;2024-01-10T09:30:17;3.70;;;3.33;;
7340;SDS011;6870;50.944;6.932;2024-01-10T09:32:46;5.30;;;4.40;;
7340;SDS011;6870;50.944;6.932;2024-01-10T09:35:15;4.43;;;3.83;;
7340;SDS011;6870;50.944;6.932;2024-01-10T09:37:44;5.10;;;3.63;;
7340;SDS011;6870;50.944;6.932;2024-01-10T09:40:13;6.83;;;4.13;;
7340;SDS011;6870;50.944;6.932;2024-01-10T09:42:43;4.77;;;3.70;;
7340;SDS011;6870;50.944;6.932;2024-01-10T09:45:11;6.40;;;3.83;;
7340;SDS011;6870;50.944;6.932;2024-01-10T09:47:40;4.33;;;3.30;;
7340;SDS011;6870;50.944;6.932;2024-01-10T09:50:11;3.60;;;3.23;;
7340;SDS011;6870;50.944;6.932;2024-01-10T09:52:41;7.47;;;4.27;;
7340;SDS011;6870;50.944;6.932;2024-01-10T09:55:13;5.43;;;4.07;;
7340;SDS011;6870;50.944;6.932;2024-01-10T09:57:43;5.80;;;4.07;;
7340;SDS011;6870;50.944;6.932;2024-01-10T10:00:11;5.57;;;4.27;;
7340;SDS011;6870;50.944;6.932;2024-01-10T10:02:43;3.50;;;3.20;;
7340;SDS011;6870;50.944;6.932;2024-01-10T10:05:17;3.77;;;3.00;;
7340;SDS011;6870;50.944;6.932;2024-01-10T10:07:46;4.57;;;3.57;;
7340;SDS011;6870;50.944;6.932;2024-01-10T10:10:15;4.43;;;3.63;;
7340;SDS011;6870;50.944;6.932;2024-01-10T10:12:45;5.93;;;4.00;;
7340;SDS011;6870;50.944;6.932;2024-01-10T10:15:15;4.23;;;3.80;;
7340;SDS011;6870;50.944;6.932;2024-01-10T10:17:46;6.40;;;4.20;;
7340;SDS011;6870;50.944;6.932;2024-01-10T10:20:19;4.23;;;3.40;;
7340;SDS011;6870;50.944;6.932;2024-01-10T10:22:59;4.23;;;3.70;;
7340;SDS011;6870;50.944;6.932;2024-01-10T10:25:29;4.27;;;3.37;;
7340;SDS011;6870;50.944;6.932;2024-01-10T10:27:59;5.80;;;3.63;;
7340;SDS011;6870;50.944;6.932;2024-01-10T10:30:29;3.90;;;3.33;;
7340;SDS011;6870;50.944;6.932;2024-01-10T10:32:59;4.33;;;3.80;;
7340;SDS011;6870;50.944;6.932;2024-01-10T10:35:30;6.00;;;3.97;;
7340;SDS011;6870;50.944;6.932;2024-01-10T10:38:07;4.33;;;3.60;;
7340;SDS011;6870;50.944;6.932;2024-01-10T10:40:37;5.23;;;3.60;;
7340;SDS011;6870;50.944;6.932;2024-01-10T10:43:05;5.20;;;4.00;;
7340;SDS011;6870;50.944;6.932;2024-01-10T10:45:42;4.80;;;3.90;;
7340;SDS011;6870;50.944;6.932;2024-01-10T10:48:16;4.70;;;3.80;;
7340;SDS011;6870;50.944;6.932;2024-01-10T10:50:50;4.90;;;4.37;;
7340;SDS011;6870;50.944;6.932;2024-01-10T10:53:33;5.33;;;3.87;;
7340;SDS011;6870;50.944;6.932;2024-01-10T10:56:03;7.53;;;3.93;;
7340;SDS011;6870;50.944;6.932;2024-01-10T10:58:34;5.50;;;3.80;;
7340;SDS011;6870;50.944;6.932;2024-01-10T11:01:04;6.43;;;4.50;;
7340;SDS011;6870;50.944;6.932;2024-01-10T11:03:34;3.90;;;3.20;;
7340;SDS011;6870;50.944;6.932;2024-01-10T11:06:06;5.50;;;4.60;;
7340;SDS011;6870;50.944;6.932;2024-01-10T11:08:36;4.87;;;3.97;;
7340;SDS011;6870;50.944;6.932;2024-01-10T11:11:13;5.43;;;4.07;;
7340;SDS011;6870;50.944;6.932;2024-01-10T11:16:59;5.07;;;3.90;;
7340;SDS011;6870;50.944;6.932;2024-01-10T11:20:10;5.30;;;3.63;;
7340;SDS011;6870;50.944;6.932;2024-01-10T11:23:00;5.53;;;4.10;;
7340;SDS011;6870;50.944;6.932;2024-01-10T11:26:04;3.70;;;3.40;;
7340;SDS011;6870;50.944;6.932;2024-01-10T11:28:32;5.60;;;4.53;;
7340;SDS011;6870;50.944;6.932;2024-01-10T11:31:02;5.47;;;3.97;;
7340;SDS011;6870;50.944;6.932;2024-01-10T11:33:30;4.90;;;3.93;;
7340;SDS011;6870;50.944;6.932;2024-01-10T11:36:06;5.33;;;4.70;;
7340;SDS011;6870;50.944;6.932;2024-01-10T11:38:48;4.63;;;4.17;;
7340;SDS011;6870;50.944;6.932;2024-01-10T11:41:20;4.97;;;4.07;;
7340;SDS011;6870;50.944;6.932;2024-01-10T11:46:57;7.93;;;4.20;;
7340;SDS011;6870;50.944;6.932;2024-01-10T11:49:26;6.17;;;3.90;;
7340;SDS011;6870;50.944;6.932;2024-01-10T11:51:55;7.83;;;4.97;;
7340;SDS011;6870;50.944;6.932;2024-01-10T11:54:39;4.90;;;3.83;;
7340;SDS011;6870;50.944;6.932;2024-01-10T11:57:20;4.87;;;4.30;;
7340;SDS011;6870;50.944;6.932;2024-01-10T11:59:52;5.40;;;4.70;;
7340;SDS011;6870;50.944;6.932;2024-01-10T12:02:22;8.73;;;4.37;;
7340;SDS011;6870;50.944;6.932;2024-01-10T12:04:52;5.23;;;4.73;;
7340;SDS011;6870;50.944;6.932;2024-01-10T12:07:21;5.80;;;3.93;;
7340;SDS011;6870;50.944;6.932;2024-01-10T12:09:51;6.37;;;4.20;;
7340;SDS011;6870;50.944;6.932;2024-01-10T12:12:21;4.40;;;3.83;;
7340;SDS011;6870;50.944;6.932;2024-01-10T12:14:50;4.70;;;4.30;;
7340;SDS011;6870;50.944;6.932;2024-01-10T12:17:18;4.77;;;4.10;;
7340;SDS011;6870;50.944;6.932;2024-01-10T12:19:46;3.73;;;3.40;;
7340;SDS011;6870;50.944;6.932;2024-01-10T12:22:15;5.20;;;4.00;;
7340;SDS011;6870;50.944;6.932;2024-01-10T12:24:44;4.00;;;3.57;;
7340;SDS011;6870;50.944;6.932;2024-01-10T12:27:18;5.93;;;4.10;;
7340;SDS011;6870;50.944;6.932;2024-01-10T12:29:49;5.47;;;4.37;;
7340;SDS011;6870;50.944;6.932;2024-01-10T12:32:20;4.47;;;3.83;;
7340;SDS011;6870;50.944;6.932;2024-01-10T12:34:53;6.33;;;4.53;;
7340;SDS011;6870;50.944;6.932;2024-01-10T12:37:25;5.60;;;4.10;;
7340;SDS011;6870;50.944;6.932;2024-01-10T12:39:53;5.17;;;4.27;;
7340;SDS011;6870;50.944;6.932;2024-01-10T12:42:23;5.60;;;4.37;;
7340;SDS011;6870;50.944;6.932;2024-01-10T12:44:52;5.53;;;3.70;;
7340;SDS011;6870;50.944;6.932;2024-01-10T12:47:20;5.37;;;4.47;;
7340;SDS011;6870;50.944;6.932;2024-01-10T12:49:50;4.30;;;3.87;;
7340;SDS011;6870;50.944;6.932;2024-01-10T12:52:18;5.40;;;4.00;;
7340;SDS011;6870;50.944;6.932;2024-01-10T12:54:50;5.23;;;4.27;;
7340;SDS011;6870;50.944;6.932;2024-01-10T12:57:18;5.10;;;4.50;;
7340;SDS011;6870;50.944;6.932;2024-01-10T12:59:48;5.50;;;4.97;;
7340;SDS011;6870;50.944;6.932;2024-01-10T13:02:16;5.63;;;4.40;;
7340;SDS011;6870;50.944;6.932;2024-01-10T13:04:45;5.37;;;4.20;;
7340;SDS011;6870;50.944;6.932;2024-01-10T13:07:13;5.37;;;4.40;;
7340;SDS011;6870;50.944;6.932;2024-01-10T13:09:44;4.63;;;4.00;;
7340;SDS011;6870;50.944;6.932;2024-01-10T13:12:13;5.40;;;4.10;;
7340;SDS011;6870;50.944;6.932;2024-01-10T13:14:41;4.40;;;3.70;;
7340;SDS011;6870;50.944;6.932;2024-01-10T13:17:10;5.57;;;3.97;;
7340;SDS011;6870;50.944;6.932;2024-01-10T13:19:38;5.30;;;4.40;;
7340;SDS011;6870;50.944;6.932;2024-01-10T13:22:06;6.72;;;5.20;;
7340;SDS011;6870;50.944;6.932;2024-01-10T13:24:36;5.67;;;4.00;;
7340;SDS011;6870;50.944;6.932;2024-01-10T13:27:04;5.27;;;3.90;;
7340;SDS011;6870;50.944;6.932;2024-01-10T13:29:32;5.70;;;4.37;;
7340;SDS011;6870;50.944;6.932;2024-01-10T13:32:01;5.93;;;4.20;;
7340;SDS011;6870;50.944;6.932;2024-01-10T13:34:31;4.50;;;4.07;;
7340;SDS011;6870;50.944;6.932;2024-01-10T13:36:59;5.20;;;4.63;;
7340;SDS011;6870;50.944;6.932;2024-01-10T13:39:28;4.77;;;4.27;;
7340;SDS011;6870;50.944;6.932;2024-01-10T13:41:56;5.80;;;4.33;;
7340;SDS011;6870;50.944;6.932;2024-01-10T13:44:24;5.67;;;4.43;;
7340;SDS011;6870;50.944;6.932;2024-01-10T13:46:52;5.10;;;4.00;;
7340;SDS011;6870;50.944;6.932;2024-01-10T13:49:21;5.47;;;4.50;;
7340;SDS011;6870;50.944;6.932;2024-01-10T13:51:50;4.10;;;3.70;;
7340;SDS011;6870;50.944;6.932;2024-01-10T13:54:18;4.30;;;3.90;;
7340;SDS011;6870;50.944;6.932;2024-01-10T13:56:47;5.57;;;4.50;;
7340;SDS011;6870;50.944;6.932;2024-01-10T13:59:15;5.00;;;3.80;;
7340;SDS011;6870;50.944;6.932;2024-01-10T14:01:43;5.80;;;4.20;;
7340;SDS011;6870;50.944;6.932;2024-01-10T14:04:11;5.90;;;4.00;;
7340;SDS011;6870;50.944;6.932;2024-01-10T14:06:40;5.80;;;4.30;;
7340;SDS011;6870;50.944;6.932;2024-01-10T14:09:09;4.60;;;3.93;;
7340;SDS011;6870;50.944;6.932;2024-01-10T14:11:38;5.67;;;4.83;;
7340;SDS011;6870;50.944;6.932;2024-01-10T14:14:06;5.80;;;4.73;;
7340;SDS011;6870;50.944;6.932;2024-01-10T14:16:35;6.80;;;4.37;;
7340;SDS011;6870;50.944;6.932;2024-01-10T14:19:03;5.33;;;4.83;;
7340;SDS011;6870;50.944;6.932;2024-01-10T14:21:31;7.00;;;4.70;;
7340;SDS011;6870;50.944;6.932;2024-01-10T14:23:59;6.67;;;4.70;;
7340;SDS011;6870;50.944;6.932;2024-01-10T14:26:29;6.90;;;4.60;;
7340;SDS011;6870;50.944;6.932;2024-01-10T14:28:57;7.10;;;5.60;;
7340;SDS011;6870;50.944;6.932;2024-01-10T14:31:26;5.50;;;4.37;;
7340;SDS011;6870;50.944;6.932;2024-01-10T14:34:09;7.97;;;5.10;;
7340;SDS011;6870;50.944;6.932;2024-01-10T14:36:37;9.40;;;5.57;;
7340;SDS011;6870;50.944;6.932;2024-01-10T14:39:05;5.20;;;4.30;;
7340;SDS011;6870;50.944;6.932;2024-01-10T14:41:35;6.97;;;5.73;;
7340;SDS011;6870;50.944;6.932;2024-01-10T14:44:03;6.37;;;4.87;;
7340;SDS011;6870;50.944;6.932;2024-01-10T14:46:31;6.50;;;4.27;;
7340;SDS011;6870;50.944;6.932;2024-01-10T14:49:00;6.37;;;4.53;;
7340;SDS011;6870;50.944;6.932;2024-01-10T14:51:28;7.33;;;5.73;;
7340;SDS011;6870;50.944;6.932;2024-01-10T14:53:56;6.33;;;5.40;;
7340;SDS011;6870;50.944;6.932;2024-01-10T14:56:25;6.47;;;5.77;;
7340;SDS011;6870;50.944;6.932;2024-01-10T14:58:54;9.37;;;6.50;;
7340;SDS011;6870;50.944;6.932;2024-01-10T15:01:23;8.80;;;5.60;;
7340;SDS011;6870;50.944;6.932;2024-01-10T15:03:51;9.50;;;5.70;;
7340;SDS011;6870;50.944;6.932;2024-01-10T15:06:19;7.80;;;5.77;;
7340;SDS011;6870;50.944;6.932;2024-01-10T15:08:48;6.53;;;5.83;;
7340;SDS011;6870;50.944;6.932;2024-01-10T15:11:18;8.40;;;6.53;;
7340;SDS011;6870;50.944;6.932;2024-01-10T15:13:47;6.93;;;5.63;;
7340;SDS011;6870;50.944;6.932;2024-01-10T15:16:17;9.23;;;6.33;;
7340;SDS011;6870;50.944;6.932;2024-01-10T15:18:46;11.17;;;6.50;;
7340;SDS011;6870;50.944;6.932;2024-01-10T15:21:15;8.20;;;6.33;;
7340;SDS011;6870;50.944;6.932;2024-01-10T15:23:43;8.40;;;5.93;;
7340;SDS011;6870;50.944;6.932;2024-01-10T15:26:14;11.00;;;6.50;;
7340;SDS011;6870;50.944;6.932;2024-01-10T15:28:44;7.40;;;5.77;;
7340;SDS011;6870;50.944;6.932;2024-01-10T15:31:17;7.50;;;5.83;;
7340;SDS011;6870;50.944;6.932;2024-01-10T15:33:45;8.57;;;6.13;;
7340;SDS011;6870;50.944;6.932;2024-01-10T15:36:14;8.47;;;6.07;;